Estación Meteorológica Peña el Pijo (Robertgarden) [ 01/30/23 13:53:04 CET ]

Fecha Hora Presion(HPa) Temp (°C) Humedad % Rocio (°C) Viento ( m/s) Direccion Lluvia 1Hora(mm) Lluvia 24H(mm) LLuvia Total(mm)
2012-Apr-03 01:01:13 1000.300 6.2 89 4.5         155.40
2012-Apr-03 02:01:14 999.900 4.9 90 3.4         155.40
2012-Apr-03 03:03:15 999.200 4.4 90 2.9         155.40
2012-Apr-03 04:01:17 998.500 4.0 91 2.6         155.40
2012-Apr-03 05:01:17 998.300 4.3 92 3.1         155.40
2012-Apr-03 06:01:13 998.000 4.3 92 3.1         155.40
2012-Apr-03 07:01:16 997.700 4.9 92 3.7         155.40
2012-Apr-03 08:01:18 998.000 5.3 93 4.2         155.40
2012-Apr-03 09:01:12 998.300 5.6 93 4.5         155.40
2012-Apr-03 10:01:15 998.700 6.8 93 5.8         155.40
2012-Apr-03 11:01:16 999.000 8.2 92 7.0         155.40
2012-Apr-03 12:01:11 999.000 10.4 83 7.6         155.40
2012-Apr-03 13:01:17 998.600 10.4 77 6.5         155.40
2012-Apr-03 14:01:14 998.700 8.4 82 5.5         155.40
2012-Apr-03 15:01:14 998.000 9.9 81 6.8         155.40
2012-Apr-03 16:01:13 997.400 13.8 63 6.9         155.40
2012-Apr-03 17:01:13 996.700 14.1 59 6.2         155.40
2012-Apr-03 18:01:13 996.600 12.4 64 5.8         155.40
2012-Apr-03 19:01:13 996.800 12.1 63 5.2         155.40
2012-Apr-03 20:01:17 997.200 11.1 62 4.0         155.40
2012-Apr-03 21:01:12 997.800 8.9 70 3.7         155.40
2012-Apr-03 22:01:12 998.500 7.9 75 3.8         155.40
2012-Apr-03 23:01:14 999.000 6.8 81 3.8         155.40

Temperatura Máxima:14°    Temperatura Mínima:
Presión Máxima:1000.300 Hpa    Presión Mínima:996.600 Hpa


Volver